logo
Rechercher aéroport 
image banner adimage banner adimage banner ad
image banner ad

YCRM - Cradle Mountain

Situé à , Australia

ICAO - , IATA -

Données fournies par Airmate  

Information générale

Coordonnées: S41°34'39" E145°56'29"
Élévation : 2820 feet MSL.
 
Voir autres Aéroports à Tasmania

Données opérationnelles

Special qualification required
Heure actuelle UTC:
Heure actuelle locale:
Météo à : - ( 0 km )
METAR: KAFP 220832Z AUTO 00000KT 10SM CLR 15/14 A3003 RMK AO2 T01490142
Voir NOTAMs / SUP AIP / TFR affectant cet aéroport [VIEW]
Fréquences de communication: [VIEW]

Pistes:

Coordonnées de l'aéroport

Adresse: Australia

Vue satellite de YCRM